createdAt,value
2019-04-29T00:03:54.515Z,100762.75
2019-04-29T00:08:58.339Z,100767.77
2019-04-29T00:14:02.225Z,100767.77
2019-04-29T00:19:24.987Z,100756.02
2019-04-29T00:24:28.924Z,100751.62
2019-04-29T00:29:32.723Z,100751.25
2019-04-29T00:34:36.624Z,100756.76
2019-04-29T00:40:00.103Z,100750.40
2019-04-29T00:45:04.280Z,100745.88
2019-04-29T00:50:08.157Z,100745.88
2019-04-29T00:55:14.791Z,100748.08
2019-04-29T01:00:27.623Z,100748.08
2019-04-29T01:05:31.698Z,100750.50
2019-04-29T01:10:35.502Z,100751.72
2019-04-29T01:15:39.357Z,100747.08
2019-04-29T01:20:43.189Z,100741.80
2019-04-29T01:25:49.548Z,100741.80
2019-04-29T01:31:03.789Z,100731.01
2019-04-29T01:36:34.319Z,100740.94
2019-04-29T01:42:03.058Z,100740.94
2019-04-29T01:47:07.008Z,100743.72
2019-04-29T01:52:10.890Z,100748.73
2019-04-29T01:57:14.698Z,100746.29
2019-04-29T02:02:18.543Z,100746.31
2019-04-29T02:07:22.335Z,100728.41
2019-04-29T02:12:26.183Z,100746.53
2019-04-29T02:17:29.978Z,100739.93
2019-04-29T02:22:39.070Z,100736.51
2019-04-29T02:27:42.852Z,100731.50
2019-04-29T02:32:46.644Z,100737.86
2019-04-29T02:37:50.453Z,100724.41
2019-04-29T02:43:00.487Z,100722.09
2019-04-29T02:48:04.372Z,100720.01
2019-04-29T02:53:08.146Z,100718.66
2019-04-29T02:58:20.447Z,100710.69
2019-04-29T03:03:31.026Z,100710.69
2019-04-29T03:08:34.894Z,100699.56
2019-04-29T03:13:38.681Z,100695.05
2019-04-29T03:18:47.193Z,100683.20
2019-04-29T03:23:50.972Z,100693.70
2019-04-29T03:28:54.790Z,100694.44
2019-04-29T03:33:59.220Z,100693.45
2019-04-29T03:39:03.219Z,100680.59
2019-04-29T03:44:07.014Z,100680.59
2019-04-29T03:49:10.833Z,100680.63
2019-04-29T03:54:14.639Z,100674.39
2019-04-29T03:59:18.418Z,100677.94
2019-04-29T04:04:39.777Z,100660.19
2019-04-29T04:09:43.562Z,100660.19
2019-04-29T04:14:47.344Z,100684.30
2019-04-29T04:19:51.302Z,100685.77
2019-04-29T04:24:55.086Z,100680.51
2019-04-29T04:29:58.850Z,100682.70
2019-04-29T04:35:02.860Z,100685.00
2019-04-29T04:40:06.750Z,100684.63
2019-04-29T04:45:10.579Z,100684.27
2019-04-29T04:50:14.613Z,100685.13
2019-04-29T04:55:20.522Z,100685.13
2019-04-29T05:00:26.072Z,100676.57
2019-04-29T05:05:30.089Z,100677.06
2019-04-29T05:10:33.857Z,100669.11
2019-04-29T05:15:37.647Z,100661.78
2019-04-29T05:20:41.463Z,100655.19
2019-04-29T05:25:45.250Z,100649.42
2019-04-29T05:30:49.121Z,100667.65
2019-04-29T05:36:10.290Z,100672.27
2019-04-29T05:41:14.171Z,100667.98
2019-04-29T05:46:37.930Z,100657.23
2019-04-29T05:51:50.939Z,100656.63
2019-04-29T05:56:54.781Z,100651.73
2019-04-29T06:01:58.708Z,100653.69
2019-04-29T06:07:02.479Z,100641.23
2019-04-29T06:12:06.267Z,100637.81
2019-04-29T06:17:10.032Z,100622.17
2019-04-29T06:22:13.849Z,100619.70
2019-04-29T06:27:17.619Z,100633.66
2019-04-29T06:32:24.805Z,100615.55
2019-04-29T06:37:27.052Z,100627.19
2019-04-29T06:42:33.486Z,100629.11
2019-04-29T06:47:36.873Z,100630.23
2019-04-29T06:52:40.735Z,100631.80
2019-04-29T06:57:44.517Z,100628.74
2019-04-29T07:02:49.965Z,100628.74
2019-04-29T07:07:53.795Z,100627.94
2019-04-29T07:12:57.605Z,100632.64
2019-04-29T07:18:01.380Z,100632.64
2019-04-29T07:23:05.170Z,100614.69
2019-04-29T07:28:08.946Z,100607.50
2019-04-29T07:33:12.910Z,100601.69
2019-04-29T07:38:16.695Z,100601.69
2019-04-29T07:43:20.660Z,100612.99
2019-04-29T07:48:24.659Z,100603.48
2019-04-29T07:53:36.703Z,100625.37
2019-04-29T07:58:33.939Z,100625.37
2019-04-29T08:03:37.808Z,100598.95
2019-04-29T08:08:54.324Z,100607.62
2019-04-29T08:13:47.236Z,100599.31
2019-04-29T08:18:53.553Z,100583.20
2019-04-29T08:23:56.551Z,100583.20
2019-04-29T08:29:01.607Z,100571.50
2019-04-29T08:34:05.524Z,100571.50
2019-04-29T08:39:09.530Z,100560.52
2019-04-29T08:44:32.754Z,100560.52
2019-04-29T08:49:36.633Z,100569.45
2019-04-29T08:54:40.464Z,100569.52
2019-04-29T08:59:44.252Z,100559.25
2019-04-29T09:04:53.652Z,100559.25
2019-04-29T09:09:56.011Z,100548.39
2019-04-29T09:14:59.190Z,100545.59
2019-04-29T09:20:03.447Z,100545.59
2019-04-29T09:25:21.379Z,100536.16
2019-04-29T09:30:25.924Z,100511.02
2019-04-29T09:35:33.783Z,100505.77
2019-04-29T09:40:40.029Z,100505.77
2019-04-29T09:45:49.528Z,100557.30
2019-04-29T09:50:53.337Z,100559.62
2019-04-29T10:06:24.924Z,100540.09
2019-04-29T10:11:28.749Z,100520.45
2019-04-29T10:17:00.129Z,100503.08
2019-04-29T10:22:04.016Z,100496.04
2019-04-29T10:27:08.003Z,100485.94
2019-04-29T10:32:12.432Z,100482.00
2019-04-29T10:37:16.219Z,100482.00
2019-04-29T10:42:25.910Z,100467.73
2019-04-29T10:48:00.726Z,100456.34
2019-04-29T10:53:04.925Z,100455.23
2019-04-29T10:58:08.717Z,100461.30
2019-04-29T11:03:12.944Z,100457.34
2019-04-29T11:08:38.127Z,100449.27
2019-04-29T11:13:47.052Z,100437.18
2019-04-29T11:18:45.956Z,100438.16
2019-04-29T11:30:17.081Z,100428.76
2019-04-29T11:35:39.824Z,100450.37
2019-04-29T11:40:44.496Z,100454.64
2019-04-29T11:45:48.754Z,100462.89
2019-04-29T11:51:07.308Z,100462.89
2019-04-29T11:56:11.192Z,100461.87
2019-04-29T12:01:37.773Z,100461.87
2019-04-29T12:06:30.839Z,100464.55
2019-04-29T12:11:36.282Z,100464.55
2019-04-29T12:16:47.687Z,100433.28
2019-04-29T12:21:51.586Z,100431.97
2019-04-29T12:26:55.469Z,100426.60
2019-04-29T12:32:20.739Z,100426.60
2019-04-29T12:37:47.368Z,100416.94
2019-04-29T12:43:16.210Z,100416.94
2019-04-29T12:48:24.902Z,100409.37
2019-04-29T12:53:24.519Z,100409.37
2019-04-29T12:58:28.493Z,100396.80
2019-04-29T13:03:41.968Z,100401.44
2019-04-29T13:08:56.799Z,100401.44
2019-04-29T13:14:01.783Z,100399.13
2019-04-29T13:19:19.936Z,100398.27
2019-04-29T13:24:24.527Z,100404.13
2019-04-29T13:29:27.308Z,100396.30
2019-04-29T13:34:35.229Z,100396.30
2019-04-29T13:39:40.627Z,100386.05
2019-04-29T13:45:04.633Z,100391.41
2019-04-29T13:50:16.947Z,100391.41
2019-04-29T13:55:17.051Z,100384.46
2019-04-29T14:00:28.459Z,100377.27
2019-04-29T14:05:36.345Z,100375.68
2019-04-29T14:10:37.904Z,100372.51
2019-04-29T14:15:41.861Z,100364.09
2019-04-29T14:20:47.259Z,100370.44
2019-04-29T14:25:51.161Z,100369.95
2019-04-29T14:30:55.862Z,100359.80
2019-04-29T14:36:06.441Z,100359.80
2019-04-29T14:41:14.361Z,100364.70
2019-04-29T14:46:33.584Z,100370.07
2019-04-29T14:51:38.132Z,100363.45
2019-04-29T14:56:42.005Z,100363.45
2019-04-29T15:01:51.186Z,100373.20
2019-04-29T15:06:55.107Z,100373.70
2019-04-29T15:12:08.800Z,100377.23
2019-04-29T15:17:33.083Z,100378.21
2019-04-29T15:22:37.791Z,100376.97
2019-04-29T15:27:41.572Z,100376.97
2019-04-29T15:32:45.378Z,100383.61
2019-04-29T15:37:49.151Z,100385.48
2019-04-29T15:42:53.691Z,100388.88
2019-04-29T15:47:57.742Z,100387.07
2019-04-29T15:53:02.913Z,100389.90
2019-04-29T15:58:07.850Z,100397.34
2019-04-29T16:03:12.689Z,100397.34
2019-04-29T16:08:29.373Z,100394.06
2019-04-29T16:13:32.227Z,100399.43
2019-04-29T16:18:36.055Z,100399.43
2019-04-29T16:23:40.358Z,100390.66
2019-04-29T16:28:44.219Z,100391.52
2019-04-29T16:33:54.648Z,100402.64
2019-04-29T16:38:53.687Z,100402.64
2019-04-29T16:43:57.951Z,100403.84
2019-04-29T16:49:01.721Z,100409.84
2019-04-29T16:54:05.524Z,100406.41
2019-04-29T16:59:09.686Z,100406.41
2019-04-29T17:04:13.608Z,100401.89
2019-04-29T17:09:35.185Z,100401.89
2019-04-29T17:15:02.247Z,100412.41
2019-04-29T17:19:44.950Z,100416.17
2019-04-29T17:24:48.749Z,100414.45
2019-04-29T17:30:14.462Z,100414.45
2019-04-29T17:35:21.411Z,100415.42
2019-04-29T17:40:24.381Z,100411.91
2019-04-29T17:45:36.353Z,100415.70
2019-04-29T17:50:46.799Z,100413.63
2019-04-29T17:55:56.307Z,100416.78
2019-04-29T18:01:19.097Z,100415.45
2019-04-29T18:06:31.049Z,100415.45
2019-04-29T18:11:48.885Z,100419.47
2019-04-29T18:16:43.588Z,100428.29
2019-04-29T18:22:07.329Z,100428.29
2019-04-29T18:27:15.296Z,100425.21
2019-04-29T18:32:19.135Z,100423.64
2019-04-29T18:37:22.938Z,100421.45
2019-04-29T18:42:28.406Z,100420.83
2019-04-29T18:47:35.012Z,100420.83
2019-04-29T18:52:37.724Z,100422.30
2019-04-29T18:57:41.564Z,100428.89
2019-04-29T19:02:52.304Z,100436.33
2019-04-29T19:07:55.119Z,100441.84
2019-04-29T19:13:00.015Z,100433.16
2019-04-29T19:18:02.138Z,100433.16
2019-04-29T19:23:10.010Z,100439.88
2019-04-29T19:28:15.141Z,100445.25
2019-04-29T19:33:17.576Z,100445.25
2019-04-29T19:38:21.421Z,100454.30
2019-04-29T19:43:25.844Z,100452.22
2019-04-29T19:48:29.815Z,100452.22
2019-04-29T19:53:35.991Z,100454.55
2019-04-29T19:58:39.832Z,100457.83
2019-04-29T20:04:02.175Z,100457.83
2019-04-29T20:09:14.664Z,100459.06
2019-04-29T20:14:18.703Z,100456.99
2019-04-29T20:19:29.432Z,100461.61
2019-04-29T20:24:35.801Z,100461.61
2019-04-29T20:29:39.292Z,100474.34
2019-04-29T20:34:43.633Z,100479.58
2019-04-29T20:39:52.124Z,100479.58
2019-04-29T20:44:55.289Z,100470.91
2019-04-29T20:49:59.302Z,100482.14
2019-04-29T20:55:05.819Z,100481.78
2019-04-29T21:00:09.032Z,100486.91
2019-04-29T21:05:19.633Z,100481.89
2019-04-29T21:10:20.497Z,100489.00
2019-04-29T21:15:31.105Z,100488.02
2019-04-29T21:20:35.142Z,100487.41
2019-04-29T21:25:39.098Z,100491.92
2019-04-29T21:30:42.970Z,100491.92
2019-04-29T21:35:58.738Z,100499.50
2019-04-29T21:41:07.002Z,100505.37
2019-04-29T21:46:10.811Z,100508.05
2019-04-29T21:51:15.702Z,100506.72
2019-04-29T21:56:20.249Z,100506.72
2019-04-29T22:01:25.160Z,100524.55
2019-04-29T22:06:30.143Z,100524.55
2019-04-29T22:11:37.818Z,100524.55
2019-04-29T22:16:40.098Z,100530.66
2019-04-29T22:21:45.803Z,100531.02
2019-04-29T22:26:49.454Z,100531.02
2019-04-29T22:31:53.253Z,100532.85
2019-04-29T22:37:00.071Z,100537.73
2019-04-29T22:42:17.620Z,100532.00
2019-04-29T22:47:23.648Z,100532.00
2019-04-29T22:52:29.941Z,100534.44
2019-04-29T22:57:32.668Z,100542.63
2019-04-29T23:02:36.457Z,100542.63
2019-04-29T23:07:40.248Z,100543.48
2019-04-29T23:12:45.090Z,100550.69
2019-04-29T23:17:50.853Z,100542.41
2019-04-29T23:23:00.099Z,100541.06
2019-04-29T23:28:04.362Z,100541.06
2019-04-29T23:33:08.269Z,100538.95
2019-04-29T23:38:12.061Z,100538.95
2019-04-29T23:43:15.854Z,100539.94
2019-04-29T23:48:20.056Z,100533.48
2019-04-29T23:53:26.598Z,100533.48
2019-04-29T23:58:52.482Z,100521.87
